Terminal Aerodrome Forecast
Issued by NWS

Home | Current Version | Previous Version | Text Only | Print | Product List | Glossary On
Versions: 1 2 3 4 5 6 7 8 9 10 11 12 13 14 15 16
000
FTUS43 KEAX 181132
TAFMKC
TAF
KMKC 181132Z 1812/1912 22004KT P6SM SCT250
     FM181400 22009KT P6SM SCT100
     FM190000 VRB05KT P6SM -TSRA BKN040CB
     FM190300 VRB03KT P6SM SCT050=

USA.gov is the U.S. government's official web portal to all federal, state and local government web resources and services.